createdAt,value
2017-08-25T00:01:25.158Z,14.20
2017-08-25T00:03:53.057Z,14.10
2017-08-25T00:06:20.602Z,14.20
2017-08-25T00:08:48.178Z,14.20
2017-08-25T00:11:15.748Z,14.20
2017-08-25T00:13:43.340Z,14.20
2017-08-25T00:16:10.882Z,14.20
2017-08-25T00:18:38.448Z,14.30
2017-08-25T00:21:05.985Z,14.20
2017-08-25T00:23:33.514Z,14.30
2017-08-25T00:26:01.078Z,14.20
2017-08-25T00:28:29.622Z,14.10
2017-08-25T00:30:57.147Z,14.00
2017-08-25T00:33:24.701Z,13.90
2017-08-25T00:35:52.234Z,13.90
2017-08-25T00:38:19.832Z,13.90
2017-08-25T00:40:47.398Z,13.90
2017-08-25T00:43:14.922Z,13.90
2017-08-25T00:45:42.463Z,13.90
2017-08-25T00:48:10.014Z,13.90
2017-08-25T00:50:37.586Z,13.80
2017-08-25T00:53:05.133Z,13.70
2017-08-25T00:55:32.711Z,13.60
2017-08-25T00:58:00.252Z,13.50
2017-08-25T01:00:27.778Z,13.50
2017-08-25T01:02:55.347Z,13.40
2017-08-25T01:05:22.898Z,13.50
2017-08-25T01:07:50.434Z,13.40
2017-08-25T01:10:17.954Z,13.40
2017-08-25T01:12:46.482Z,13.50
2017-08-25T01:15:14.030Z,13.60
2017-08-25T01:17:41.606Z,13.60
2017-08-25T01:20:09.177Z,13.60
2017-08-25T01:22:36.730Z,13.60
2017-08-25T01:25:04.296Z,13.60
2017-08-25T01:27:31.856Z,13.60
2017-08-25T01:29:59.417Z,13.60
2017-08-25T01:32:26.988Z,13.60
2017-08-25T01:34:55.316Z,13.60
2017-08-25T01:37:22.871Z,13.50
2017-08-25T01:39:50.483Z,13.50
2017-08-25T01:42:19.504Z,13.30
2017-08-25T01:44:47.076Z,13.30
2017-08-25T01:47:14.636Z,13.30
2017-08-25T01:49:42.200Z,13.30
2017-08-25T01:52:09.778Z,13.20
2017-08-25T01:54:37.330Z,13.20
2017-08-25T01:57:04.907Z,13.20
2017-08-25T01:59:32.490Z,13.10
2017-08-25T02:02:00.034Z,13.00
2017-08-25T02:04:27.611Z,13.10
2017-08-25T02:06:55.152Z,13.10
2017-08-25T02:09:22.694Z,13.10
2017-08-25T02:11:50.269Z,13.10
2017-08-25T02:14:17.828Z,13.10
2017-08-25T02:16:45.387Z,13.00
2017-08-25T02:19:12.976Z,13.00
2017-08-25T02:21:46.090Z,13.00
2017-08-25T02:24:13.680Z,13.00
2017-08-25T02:26:41.225Z,13.00
2017-08-25T02:29:08.792Z,13.00
2017-08-25T02:31:36.364Z,13.10
2017-08-25T02:34:03.924Z,13.10
2017-08-25T02:36:31.462Z,13.10
2017-08-25T02:38:59.021Z,13.10
2017-08-25T02:41:26.591Z,13.00
2017-08-25T02:43:54.338Z,13.10
2017-08-25T02:46:21.872Z,13.10
2017-08-25T02:48:49.413Z,13.10
2017-08-25T02:51:16.960Z,13.10
2017-08-25T02:53:45.776Z,13.20
2017-08-25T02:56:13.333Z,13.20
2017-08-25T02:58:40.886Z,13.30
2017-08-25T03:01:08.429Z,13.20
2017-08-25T03:03:36.992Z,13.20
2017-08-25T03:06:04.544Z,13.10
2017-08-25T03:08:32.095Z,13.00
2017-08-25T03:10:59.642Z,12.90
2017-08-25T03:13:27.190Z,12.80
2017-08-25T03:15:54.771Z,12.80
2017-08-25T03:18:22.304Z,12.80
2017-08-25T03:20:49.839Z,12.80
2017-08-25T03:23:17.416Z,12.70
2017-08-25T03:25:45.180Z,12.70
2017-08-25T03:28:12.776Z,12.70
2017-08-25T03:30:40.414Z,12.70
2017-08-25T03:33:09.028Z,12.80
2017-08-25T03:35:37.373Z,12.70
2017-08-25T03:38:04.953Z,12.70
2017-08-25T03:40:32.789Z,12.70
2017-08-25T03:43:00.574Z,12.70
2017-08-25T03:45:28.400Z,12.70
2017-08-25T03:47:56.217Z,12.70
2017-08-25T03:50:23.983Z,12.70
2017-08-25T03:52:51.803Z,12.60
2017-08-25T03:55:19.553Z,12.60
2017-08-25T03:57:47.323Z,12.60
2017-08-25T04:00:15.248Z,12.50
2017-08-25T04:02:43.834Z,12.50
2017-08-25T04:05:11.678Z,12.50
2017-08-25T04:07:40.300Z,12.50
2017-08-25T04:10:08.821Z,12.50
2017-08-25T04:12:36.759Z,12.60
2017-08-25T04:15:04.586Z,12.50
2017-08-25T04:17:32.238Z,12.50
2017-08-25T04:20:00.047Z,12.50
2017-08-25T04:22:27.829Z,12.50
2017-08-25T04:24:55.676Z,12.50
2017-08-25T04:27:23.437Z,12.50
2017-08-25T04:29:52.042Z,12.60
2017-08-25T04:32:20.039Z,12.60
2017-08-25T04:34:48.697Z,12.60
2017-08-25T04:37:16.606Z,12.60
2017-08-25T04:39:44.293Z,12.60
2017-08-25T04:42:13.098Z,12.70
2017-08-25T04:44:41.013Z,12.70
2017-08-25T04:47:08.929Z,12.70
2017-08-25T04:49:36.584Z,12.70
2017-08-25T04:52:04.519Z,12.80
2017-08-25T04:54:32.579Z,12.80
2017-08-25T04:57:01.228Z,12.80
2017-08-25T04:59:28.944Z,13.00
2017-08-25T05:01:56.489Z,13.00
2017-08-25T05:04:24.288Z,13.10
2017-08-25T05:06:52.078Z,13.10
2017-08-25T05:09:20.433Z,13.20
2017-08-25T05:11:48.324Z,13.20
2017-08-25T05:14:16.484Z,13.30
2017-08-25T05:16:44.277Z,13.50
2017-08-25T05:19:12.053Z,13.60
2017-08-25T05:21:39.631Z,13.60
2017-08-25T05:24:07.154Z,13.70
2017-08-25T05:26:34.981Z,13.80
2017-08-25T05:29:02.579Z,13.90
2017-08-25T05:31:30.597Z,14.10
2017-08-25T05:33:58.377Z,14.20
2017-08-25T05:36:26.255Z,14.30
2017-08-25T05:38:54.100Z,14.30
2017-08-25T05:41:21.673Z,14.50
2017-08-25T05:43:49.441Z,14.60
2017-08-25T05:46:17.316Z,14.70
2017-08-25T05:48:45.066Z,14.70
2017-08-25T05:51:13.789Z,14.90
2017-08-25T05:53:41.568Z,15.00
2017-08-25T05:56:09.359Z,15.10
2017-08-25T05:58:37.046Z,15.30
2017-08-25T06:01:04.752Z,15.50
2017-08-25T06:03:32.342Z,15.60
2017-08-25T06:06:00.758Z,15.70
2017-08-25T06:08:28.534Z,15.70
2017-08-25T06:10:56.370Z,15.80
2017-08-25T06:13:24.153Z,15.80
2017-08-25T06:15:52.098Z,15.90
2017-08-25T06:18:19.866Z,16.10
2017-08-25T06:20:49.220Z,16.20
2017-08-25T06:23:17.185Z,16.30
2017-08-25T06:25:45.061Z,16.40
2017-08-25T06:28:12.842Z,16.60
2017-08-25T06:30:58.849Z,16.60
2017-08-25T06:33:29.886Z,16.70
2017-08-25T06:35:59.957Z,16.80
2017-08-25T06:38:27.729Z,17.00
2017-08-25T06:40:55.433Z,17.20
2017-08-25T06:43:24.692Z,17.20
2017-08-25T06:45:52.577Z,17.30
2017-08-25T06:48:21.310Z,17.50
2017-08-25T06:50:51.085Z,17.50
2017-08-25T06:53:20.347Z,17.60
2017-08-25T06:55:52.234Z,17.70
2017-08-25T06:58:23.563Z,17.90
2017-08-25T07:00:53.958Z,18.00
2017-08-25T07:03:21.553Z,18.20
2017-08-25T07:05:49.454Z,18.30
2017-08-25T07:08:37.866Z,18.40
2017-08-25T07:13:41.520Z,18.60
2017-08-25T07:16:09.106Z,18.90
2017-08-25T07:18:36.674Z,19.00
